Time;durP1;ratioP1;P1;durP2;ratioP2;P2;SDS_P1;SDS_P2;PMS_P1;PMS_P2;Temp;Humidity;BMP_temperature;BMP_pressure;BME280_temperature;BME280_humidity;BME280_pressure;Samples;Min_cycle;Max_cycle;Signal;HPM_P1;HPM_P2
2020/12/15 00:00:31;;;;;;;88.85;23.92;;;;;;;1.63;96.42;101398.59;1808838;79;21180;-90
2020/12/15 00:06:38;;;;;;;91.10;25.35;;;;;;;1.40;97.08;101399.45;1808544;79;21182;-90
2020/12/15 00:09:04;;;;;;;89.87;24.87;;;;;;;1.53;96.75;101402.34;1808814;78;21018;-90
2020/12/15 00:11:30;;;;;;;93.22;23.50;;;;;;;1.64;96.83;101409.02;1808622;78;21091;-90
2020/12/15 00:13:56;;;;;;;96.08;24.67;;;;;;;1.74;96.32;101394.99;1808677;79;21182;-90
2020/12/15 00:16:22;;;;;;;108.17;25.90;;;;;;;1.88;95.48;101398.64;1808716;78;21284;-89
2020/12/15 00:18:48;;;;;;;105.00;27.32;;;;;;;1.87;95.09;101398.84;1808638;79;21050;-90
2020/12/15 00:21:22;;;;;;;103.58;27.48;;;;;;;1.82;95.33;101399.37;1808510;78;21181;-90
2020/12/15 00:23:50;;;;;;;102.87;26.37;;;;;;;1.53;96.36;101398.36;1798835;79;21051;-89
2020/12/15 00:26:17;;;;;;;96.35;24.55;;;;;;;1.63;96.53;101402.08;1797699;79;21210;-89
2020/12/15 00:28:44;;;;;;;75.97;21.82;;;;;;;1.89;95.60;101393.67;1797688;79;21154;-90
2020/12/15 00:34:51;;;;;;;96.60;25.35;;;;;;;2.00;95.00;101377.75;1797677;79;21216;-90
2020/12/15 00:40:58;;;;;;;101.25;23.98;;;;;;;1.31;97.37;101377.45;1797818;79;21135;-90
2020/12/15 00:47:05;;;;;;;101.00;26.05;;;;;;;1.25;97.86;101368.06;1797812;79;21649;-90
2020/12/15 00:49:31;;;;;;;93.90;26.00;;;;;;;1.34;97.83;101373.63;1797923;79;20924;-90
2020/12/15 00:51:56;;;;;;;114.45;28.73;;;;;;;1.36;97.57;101371.11;1797665;79;21158;-89
2020/12/15 00:58:03;;;;;;;111.90;27.27;;;;;;;1.13;99.93;101371.64;1797792;79;21170;-89
2020/12/15 01:00:29;;;;;;;102.65;25.30;;;;;;;1.00;100.00;101383.34;1797763;79;20992;-90
2020/12/15 01:02:55;;;;;;;110.92;25.72;;;;;;;0.90;100.00;101375.63;1797605;79;21254;-89
2020/12/15 01:05:22;;;;;;;111.32;26.00;;;;;;;1.04;100.00;101375.37;1797742;79;21615;-90
2020/12/15 01:07:47;;;;;;;92.17;25.27;;;;;;;1.08;100.00;101377.47;1797743;79;21246;-90
2020/12/15 01:10:14;;;;;;;110.22;27.52;;;;;;;1.30;99.68;101377.14;1775303;79;20936;-90
2020/12/15 01:12:39;;;;;;;112.15;27.35;;;;;;;1.20;99.66;101373.90;1797585;79;21218;-90
2020/12/15 01:15:05;;;;;;;102.65;28.47;;;;;;;1.13;99.76;101371.14;1797657;79;21024;-90
2020/12/15 01:17:31;;;;;;;94.25;25.90;;;;;;;1.07;100.00;101367.88;1797771;79;21218;-90
2020/12/15 01:19:58;;;;;;;81.45;21.73;;;;;;;1.10;100.00;101371.49;1797742;79;21230;-90
2020/12/15 01:22:26;;;;;;;100.82;24.92;;;;;;;1.10;100.00;101364.04;1775232;79;21603;-90
2020/12/15 01:24:51;;;;;;;90.80;23.38;;;;;;;1.12;100.00;101360.72;1807468;79;21110;-90
2020/12/15 01:27:17;;;;;;;86.15;21.60;;;;;;;1.18;100.00;101352.03;1785689;79;20916;-89
2020/12/15 01:29:43;;;;;;;73.90;21.35;;;;;;;1.13;99.94;101354.39;1806114;79;20884;-90
2020/12/15 01:32:09;;;;;;;87.57;22.82;;;;;;;1.29;99.68;101347.59;1806085;79;21930;-90
2020/12/15 01:34:35;;;;;;;90.20;24.20;;;;;;;1.10;99.63;101346.79;1806145;79;20920;-90
2020/12/15 01:37:04;;;;;;;86.17;22.60;;;;;;;1.04;100.00;101348.33;1806147;79;20987;-90
2020/12/15 01:39:30;;;;;;;81.42;21.02;;;;;;;1.24;100.00;101348.66;1806173;79;21233;-90
2020/12/15 01:41:57;;;;;;;77.82;22.02;;;;;;;1.19;99.75;101344.38;1806144;79;21194;-90
2020/12/15 01:44:23;;;;;;;76.82;21.48;;;;;;;1.07;99.17;101347.15;1806078;79;21144;-90
2020/12/15 01:46:51;;;;;;;68.95;20.43;;;;;;;1.07;99.55;101346.64;1806228;79;21189;-90
2020/12/15 01:49:18;;;;;;;70.32;21.00;;;;;;;1.19;99.36;101349.69;1806326;79;21046;-90
2020/12/15 01:51:45;;;;;;;73.40;21.75;;;;;;;1.18;98.85;101350.70;1806415;79;21166;-89
2020/12/15 01:54:12;;;;;;;87.67;24.20;;;;;;;1.23;98.51;101356.78;1806378;79;21087;-90
2020/12/15 01:56:38;;;;;;;90.22;22.67;;;;;;;1.26;98.75;101354.59;1812570;79;22126;-91
2020/12/15 01:59:05;;;;;;;82.85;21.50;;;;;;;1.35;98.60;101358.00;1806137;79;21118;-90
2020/12/15 02:01:44;;;;;;;83.30;22.95;;;;;;;1.38;98.26;101359.48;1806280;79;21194;-90
2020/12/15 02:04:10;;;;;;;76.28;22.02;;;;;;;1.34;98.24;101357.19;1805022;79;21110;-90
2020/12/15 02:06:37;;;;;;;82.33;23.38;;;;;;;1.19;98.24;101357.66;1806450;79;21745;-90
2020/12/15 02:09:05;;;;;;;84.37;22.02;;;;;;;1.31;99.03;101350.09;1806291;79;21322;-90
2020/12/15 02:11:31;;;;;;;84.90;24.23;;;;;;;1.19;98.83;101356.84;1806054;79;21126;-90
2020/12/15 02:13:58;;;;;;;78.70;22.80;;;;;;;1.16;98.98;101360.67;1806188;79;21225;-90
2020/12/15 02:16:26;;;;;;;76.53;22.50;;;;;;;1.11;98.82;101355.88;1806339;79;21166;-89
2020/12/15 02:18:52;;;;;;;82.82;22.42;;;;;;;1.29;98.46;101364.03;1806378;79;21067;-90
2020/12/15 02:21:19;;;;;;;73.72;21.85;;;;;;;1.29;98.44;101363.52;1806376;79;21788;-90
2020/12/15 02:23:45;;;;;;;81.40;23.83;;;;;;;1.34;97.96;101369.13;1806969;79;21331;-89
2020/12/15 02:26:11;;;;;;;80.70;23.32;;;;;;;1.22;98.04;101374.55;1811826;78;21575;-89
2020/12/15 02:28:37;;;;;;;86.00;24.37;;;;;;;1.38;97.93;101376.23;1808629;79;20928;-90
2020/12/15 02:31:03;;;;;;;83.52;21.82;;;;;;;1.05;98.65;101381.81;1806346;79;22188;-90
2020/12/15 02:37:11;;;;;;;80.05;24.43;;;;;;;1.34;98.51;101388.22;1806248;79;21138;-90
2020/12/15 02:39:37;;;;;;;91.97;23.62;;;;;;;1.38;98.01;101392.67;1806382;79;21253;-90
2020/12/15 02:42:03;;;;;;;95.67;25.50;;;;;;;1.28;98.56;101396.91;1806317;79;21158;-89
2020/12/15 02:44:30;;;;;;;97.92;25.12;;;;;;;1.28;98.87;101392.42;1806475;79;21157;-90
2020/12/15 02:46:56;;;;;;;107.75;29.23;;;;;;;1.23;99.02;101394.78;1806286;79;21662;-90
2020/12/15 02:49:22;;;;;;;104.87;25.70;;;;;;;1.22;99.28;101394.97;1806024;79;21181;-90
2020/12/15 02:51:49;;;;;;;112.30;26.90;;;;;;;1.28;99.04;101396.41;1806362;79;21091;-89
2020/12/15 02:54:19;;;;;;;97.70;25.02;;;;;;;1.13;99.33;101396.86;1806169;79;21122;-90
2020/12/15 02:56:45;;;;;;;96.87;24.57;;;;;;;1.10;99.41;101395.89;1806373;79;21169;-90
2020/12/15 02:59:12;;;;;;;90.90;23.67;;;;;;;1.26;99.44;101395.74;1806227;79;21595;-90
2020/12/15 03:01:46;;;;;;;85.85;23.05;;;;;;;1.35;98.81;101405.31;1806050;79;21119;-90
2020/12/15 03:04:12;;;;;;;91.85;25.30;;;;;;;1.17;99.14;101397.33;1806295;79;21544;-91
2020/12/15 03:06:38;;;;;;;90.22;24.45;;;;;;;1.30;98.88;101409.00;1806230;79;21150;-90
2020/12/15 03:09:09;;;;;;;95.57;25.75;;;;;;;1.39;98.38;101410.27;1806288;79;21615;-91
2020/12/15 03:11:36;;;;;;;102.05;27.02;;;;;;;1.32;98.37;101410.98;1806261;79;22251;-89
2020/12/15 03:14:03;;;;;;;109.52;28.87;;;;;;;1.39;98.17;101412.92;1806063;79;21182;-90
2020/12/15 03:16:29;;;;;;;104.78;27.05;;;;;;;1.23;98.53;101413.36;1806300;79;21166;-91
2020/12/15 03:18:55;;;;;;;97.17;26.90;;;;;;;1.36;98.57;101424.22;1806366;79;21093;-90
2020/12/15 03:21:23;;;;;;;101.40;26.35;;;;;;;1.29;97.93;101416.63;1806224;79;21583;-90
2020/12/15 03:23:51;;;;;;;100.30;24.05;;;;;;;1.41;97.93;101409.06;1804290;79;22454;-90
2020/12/15 03:26:18;;;;;;;82.15;23.83;;;;;;;1.43;97.56;101400.42;1768698;81;21135;-90
2020/12/15 03:28:44;;;;;;;93.85;24.37;;;;;;;1.34;97.42;101411.62;1768564;81;21045;-90
2020/12/15 03:31:11;;;;;;;100.90;27.10;;;;;;;1.38;97.84;101411.26;1768824;81;21192;-90
2020/12/15 03:33:37;;;;;;;103.92;25.17;;;;;;;1.38;97.55;101410.75;1749151;81;21180;-90
2020/12/15 03:36:03;;;;;;;111.28;28.35;;;;;;;1.12;98.22;101406.66;1771868;80;21229;-90
2020/12/15 03:38:29;;;;;;;101.70;27.40;;;;;;;1.20;98.91;101412.89;1773518;80;21572;-90
2020/12/15 03:40:55;;;;;;;114.57;30.57;;;;;;;1.26;98.60;101410.34;1773600;80;21141;-90
2020/12/15 03:43:21;;;;;;;109.70;26.42;;;;;;;1.10;98.61;101398.04;1773478;80;21119;-89
2020/12/15 03:45:47;;;;;;;99.58;27.90;;;;;;;1.26;98.80;101406.36;1743585;80;21366;-89
2020/12/15 03:48:14;;;;;;;105.35;27.62;;;;;;;1.32;98.45;101406.16;1743371;80;22368;-90
2020/12/15 03:50:41;;;;;;;112.15;29.52;;;;;;;1.29;98.16;101410.50;1773590;80;21207;-90
2020/12/15 03:53:07;;;;;;;119.93;30.23;;;;;;;1.30;98.12;101416.16;1773719;79;21624;-89
2020/12/15 03:55:33;;;;;;;121.80;31.97;;;;;;;1.34;98.24;101422.23;1743455;80;21052;-90
2020/12/15 03:57:59;;;;;;;124.97;33.00;;;;;;;1.30;98.44;101422.78;1773537;80;21190;-90
2020/12/15 04:00:25;;;;;;;127.02;31.75;;;;;;;1.13;98.54;101409.63;1773622;79;21241;-90
2020/12/15 04:02:51;;;;;;;117.80;30.32;;;;;;;1.11;99.54;101420.91;1743230;80;21183;-90
2020/12/15 04:05:17;;;;;;;109.27;30.88;;;;;;;1.11;99.40;101424.08;1773708;80;20945;-89
2020/12/15 04:07:43;;;;;;;104.20;26.12;;;;;;;1.17;99.36;101422.03;1773524;80;21029;-90
2020/12/15 04:10:10;;;;;;;91.35;25.35;;;;;;;1.18;99.05;101425.03;1773581;80;21183;-90
2020/12/15 04:12:37;;;;;;;102.02;25.80;;;;;;;1.44;98.60;101431.78;1743318;80;21400;-90
2020/12/15 04:15:06;;;;;;;97.22;27.67;;;;;;;1.42;97.98;101430.65;1773540;80;21132;-91
2020/12/15 04:17:36;;;;;;;107.00;28.20;;;;;;;1.47;97.36;101431.42;1773665;79;21136;-90
2020/12/15 04:20:00;;;;;;;105.30;29.63;;;;;;;1.43;97.35;101432.80;1740135;80;21138;-90
2020/12/15 04:22:26;;;;;;;107.72;29.90;;;;;;;1.44;97.36;101433.96;1773682;79;20957;-91
2020/12/15 04:24:52;;;;;;;114.70;28.25;;;;;;;1.34;97.77;101436.02;1773476;79;21230;-91
2020/12/15 04:27:18;;;;;;;100.10;25.23;;;;;;;1.58;97.28;101441.12;1773868;80;21171;-90
2020/12/15 04:29:44;;;;;;;93.47;25.40;;;;;;;1.75;96.64;101444.45;1773831;80;20949;-90
2020/12/15 04:32:10;;;;;;;99.40;26.90;;;;;;;1.73;96.06;101439.00;1773655;80;21175;-90
2020/12/15 04:34:36;;;;;;;118.80;32.95;;;;;;;1.49;96.34;101440.87;1773817;80;21005;-90
2020/12/15 04:37:02;;;;;;;123.42;34.78;;;;;;;1.45;96.83;101448.88;1773713;80;21238;-90
2020/12/15 04:39:28;;;;;;;123.22;33.70;;;;;;;1.51;96.74;101459.30;1773410;80;21172;-90
2020/12/15 04:41:54;;;;;;;119.40;34.05;;;;;;;1.30;97.12;101460.78;1773957;79;21139;-90
2020/12/15 04:44:20;;;;;;;99.87;28.10;;;;;;;1.40;97.70;101453.07;1773695;80;20949;-90
2020/12/15 04:47:19;;;;;;;113.08;27.67;;;;;;;1.54;97.16;101466.39;1773830;80;21155;-91
2020/12/15 04:50:05;;;;;;;101.80;27.07;;;;;;;1.59;96.45;101469.86;1773735;80;21250;-91
2020/12/15 04:52:55;;;;;;;90.25;24.75;;;;;;;1.68;96.33;101468.78;1772863;79;21138;-91
2020/12/15 04:55:22;;;;;;;94.62;25.77;;;;;;;1.76;95.93;101467.86;1699458;83;21174;-91
2020/12/15 04:57:48;;;;;;;106.07;29.15;;;;;;;1.72;95.91;101466.59;1699530;84;21138;-90
2020/12/15 05:00:16;;;;;;;101.15;27.17;;;;;;;1.70;96.08;101471.24;1699638;84;21158;-91
2020/12/15 05:02:48;;;;;;;109.30;30.15;;;;;;;1.45;96.58;101464.81;1699733;84;21236;-90
2020/12/15 05:05:13;;;;;;;124.75;35.08;;;;;;;1.33;97.37;101472.88;1699429;84;21170;-90
2020/12/15 05:07:43;;;;;;;108.05;30.45;;;;;;;1.28;97.82;101474.72;1699685;84;21592;-90
2020/12/15 05:10:18;;;;;;;90.50;25.08;;;;;;;1.33;97.51;101465.73;1699781;84;21170;-91
2020/12/15 05:12:44;;;;;;;98.20;29.20;;;;;;;1.56;97.27;101475.02;1699590;84;21161;-91
2020/12/15 05:15:14;;;;;;;102.97;28.20;;;;;;;1.54;96.77;101476.20;1699906;84;21244;-90
2020/12/15 05:17:41;;;;;;;105.85;27.22;;;;;;;1.52;96.74;101479.53;1635771;87;21658;-91
2020/12/15 05:20:26;;;;;;;100.50;26.68;;;;;;;1.65;96.24;101477.59;1635884;87;21176;-91
2020/12/15 05:22:52;;;;;;;114.45;31.07;;;;;;;1.62;96.18;101469.98;1636140;87;21651;-91
2020/12/15 05:25:32;;;;;;;108.80;30.12;;;;;;;1.50;96.77;101465.59;1633937;87;21239;-91
2020/12/15 05:31:27;;;;;;;108.20;27.13;;;;;;;1.28;97.41;101483.20;1632638;86;21157;-90
2020/12/15 05:33:55;;;;;;;110.85;28.55;;;;;;;1.20;98.20;101491.20;1650445;86;21148;-91
2020/12/15 05:36:22;;;;;;;159.70;42.75;;;;;;;1.28;98.69;101488.50;1627100;86;21253;-91
2020/12/15 05:42:28;;;;;;;123.62;29.92;;;;;;;1.44;97.63;101502.16;1650419;86;21223;-90
2020/12/15 05:44:57;;;;;;;135.57;32.50;;;;;;;1.37;98.49;101498.06;1650330;86;21216;-91
2020/12/15 05:47:24;;;;;;;116.80;30.12;;;;;;;1.26;98.95;101510.41;1650376;86;21257;-90
2020/12/15 05:53:30;;;;;;;120.80;28.47;;;;;;;1.23;99.33;101514.24;1647580;87;21156;-91
2020/12/15 05:55:56;;;;;;;111.65;27.82;;;;;;;1.35;98.59;101524.81;1625976;88;21664;-91
2020/12/15 05:58:22;;;;;;;102.53;27.22;;;;;;;1.33;98.32;101518.84;1625972;88;21202;-92
2020/12/15 06:00:48;;;;;;;99.03;26.77;;;;;;;1.53;98.06;101522.34;1603209;88;20973;-91
2020/12/15 06:03:14;;;;;;;94.32;25.30;;;;;;;1.40;97.73;101525.59;1626133;88;20926;-91
2020/12/15 06:05:40;;;;;;;100.18;25.32;;;;;;;1.21;98.27;101516.77;1626160;88;21254;-91
2020/12/15 06:08:07;;;;;;;100.02;28.57;;;;;;;1.16;98.59;101517.28;1626004;88;21781;-90
2020/12/15 06:10:35;;;;;;;116.77;35.73;;;;;;;1.38;98.37;101526.77;1626185;88;21616;-91
2020/12/15 06:13:02;;;;;;;104.80;30.12;;;;;;;1.37;98.16;101508.69;1604817;88;21640;-90
2020/12/15 06:15:29;;;;;;;116.65;28.80;;;;;;;1.41;97.83;101513.95;1730874;81;21185;-91
2020/12/15 06:21:49;;;;;;;88.45;25.75;;;;;;;1.23;98.04;101506.27;1807572;79;21154;-91
2020/12/15 06:24:37;;;;;;;105.83;28.38;;;;;;;1.38;98.21;101526.26;1806231;79;21184;-91
2020/12/15 06:27:02;;;;;;;97.10;26.35;;;;;;;1.39;97.27;101512.00;1814218;78;21158;-91
2020/12/15 06:29:34;;;;;;;112.60;29.30;;;;;;;1.32;98.36;101507.05;1781476;78;21201;-90
2020/12/15 06:32:04;;;;;;;85.32;23.65;;;;;;;1.34;98.35;101521.81;1812055;78;21184;-91
2020/12/15 06:34:33;;;;;;;82.25;21.50;;;;;;;1.26;97.80;101524.51;1809938;79;22148;-92
2020/12/15 06:36:59;;;;;;;75.47;21.80;;;;;;;1.21;97.70;101520.25;1814783;78;21191;-90
2020/12/15 06:43:06;;;;;;;83.12;24.75;;;;;;;1.12;98.36;101531.41;1814746;78;21169;-91
2020/12/15 06:45:32;;;;;;;78.95;24.15;;;;;;;1.27;98.86;101526.69;1785425;79;21555;-89
2020/12/15 06:48:01;;;;;;;77.08;22.95;;;;;;;1.10;98.91;101529.42;1814669;78;21238;-89
2020/12/15 06:50:27;;;;;;;82.62;24.60;;;;;;;1.17;99.05;101534.86;1814717;79;21606;-88
2020/12/15 06:52:54;;;;;;;79.40;24.67;;;;;;;1.27;98.83;101530.67;1814700;78;21086;-89
2020/12/15 06:55:30;;;;;;;77.67;23.57;;;;;;;1.35;98.87;101532.78;1814718;78;21145;-88
2020/12/15 06:58:00;;;;;;;89.67;24.87;;;;;;;1.20;98.31;101544.30;1814865;79;21187;-89
2020/12/15 07:00:38;;;;;;;84.17;25.50;;;;;;;1.45;98.30;101547.66;1814816;78;21165;-90
2020/12/15 07:03:06;;;;;;;83.97;25.08;;;;;;;1.29;97.73;101549.38;1786580;79;21130;-90
2020/12/15 07:05:34;;;;;;;76.75;22.77;;;;;;;1.38;98.30;101554.14;1814778;78;21828;-90
2020/12/15 07:08:07;;;;;;;86.42;24.72;;;;;;;1.28;98.15;101553.55;1814633;78;21118;-90
2020/12/15 07:10:37;;;;;;;88.72;25.68;;;;;;;1.18;98.78;101551.60;1811669;78;21114;-91
2020/12/15 07:27:48;;;;;;;70.03;22.98;;;;;;;1.34;98.30;101531.10;1775973;79;21179;-89
2020/12/15 07:30:22;;;;;;;68.90;22.00;;;;;;;1.53;97.21;101539.61;1773758;79;21236;-88
2020/12/15 07:32:52;;;;;;;68.85;23.02;;;;;;;1.54;97.30;101532.80;1760561;81;21138;-89
2020/12/15 07:35:28;;;;;;;64.77;22.10;;;;;;;1.44;97.62;101539.34;1760754;81;21600;-88
2020/12/15 07:37:56;;;;;;;66.25;21.57;;;;;;;1.30;97.94;101543.09;1760529;81;21162;-89
2020/12/15 07:40:21;;;;;;;73.35;21.25;;;;;;;1.37;98.31;101545.86;1760508;81;21147;-89
2020/12/15 07:43:02;;;;;;;69.40;21.48;;;;;;;1.34;98.06;101555.51;1760530;81;21555;-89
2020/12/15 07:45:31;;;;;;;64.82;20.95;;;;;;;1.21;98.54;101553.94;1760637;80;21592;-90
2020/12/15 07:47:58;;;;;;;67.58;22.17;;;;;;;1.46;98.60;101559.92;1760704;81;21167;-89
2020/12/15 07:50:29;;;;;;;64.27;20.12;;;;;;;1.58;97.92;101556.67;1760833;81;21139;-89
2020/12/15 07:53:09;;;;;;;63.40;21.20;;;;;;;1.67;97.41;101556.11;1760727;81;21138;-88
2020/12/15 07:55:35;;;;;;;68.45;21.55;;;;;;;1.59;96.94;101561.51;1744109;82;21645;-89
2020/12/15 07:58:04;;;;;;;74.07;23.80;;;;;;;1.67;97.20;101560.09;1740683;82;21159;-89
2020/12/15 08:00:30;;;;;;;65.97;21.60;;;;;;;1.92;96.98;101555.94;1744660;82;21587;-91
2020/12/15 08:03:02;;;;;;;62.30;20.65;;;;;;;2.01;95.76;101550.37;1744569;81;21265;-88
2020/12/15 08:05:28;;;;;;;57.43;20.02;;;;;;;1.77;95.57;101554.05;1744780;82;21132;-89
2020/12/15 08:07:58;;;;;;;61.55;20.92;;;;;;;1.91;95.69;101553.79;1744656;82;21196;-90
2020/12/15 08:10:31;;;;;;;68.62;22.32;;;;;;;1.84;95.26;101563.47;1722553;83;21252;-89
2020/12/15 08:13:00;;;;;;;;;;;;;;;2.18;95.54;101571.50;1734958;82;21681;-90
2020/12/15 08:15:37;;;;;;;58.42;18.73;;;;;;;2.17;94.82;101569.33;1701657;84;20299;-89
2020/12/15 08:18:06;;;;;;;66.53;20.30;;;;;;;2.47;94.73;101561.39;1701716;84;21138;-89
2020/12/15 08:20:35;;;;;;;64.72;20.90;;;;;;;2.38;94.35;101552.70;1701636;84;22083;-89
2020/12/15 08:23:13;;;;;;;54.58;17.42;;;;;;;2.24;94.01;101559.64;1701698;84;21127;-89
2020/12/15 08:25:43;;;;;;;52.48;17.45;;;;;;;2.32;94.26;101560.55;1701772;83;21258;-90
2020/12/15 08:28:23;;;;;;;53.08;17.62;;;;;;;2.16;94.08;101557.55;1678391;84;21210;-88
2020/12/15 08:30:55;;;;;;;44.80;16.20;;;;;;;2.25;94.67;101559.13;1692252;84;21146;-89
2020/12/15 08:33:24;;;;;;;46.65;15.58;;;;;;;2.15;94.78;101550.09;1692203;84;21198;-89
2020/12/15 08:35:55;;;;;;;46.65;16.52;;;;;;;2.41;94.38;101549.67;1692315;84;21516;-89
2020/12/15 08:38:25;;;;;;;45.23;15.32;;;;;;;2.38;94.46;101558.49;1692200;84;21217;-88
2020/12/15 08:41:02;;;;;;;41.95;15.55;;;;;;;2.32;94.20;101560.04;1688652;84;21233;-88
2020/12/15 08:43:29;;;;;;;45.38;15.23;;;;;;;2.38;94.03;101551.84;1666225;84;21671;-89
2020/12/15 08:45:56;;;;;;;42.25;14.53;;;;;;;2.28;94.24;101548.95;1666311;86;22027;-88
2020/12/15 08:48:25;;;;;;;40.52;14.07;;;;;;;2.21;94.12;101553.86;1666247;86;21667;-89
2020/12/15 08:50:52;;;;;;;42.08;14.70;;;;;;;2.40;94.07;101549.84;1661564;86;21499;-88
2020/12/15 08:53:20;;;;;;;45.95;16.07;;;;;;;2.38;93.70;101559.82;1645469;87;21618;-88
2020/12/15 08:55:48;;;;;;;38.00;13.35;;;;;;;2.39;93.83;101562.83;1623386;87;21206;-88
2020/12/15 08:58:15;;;;;;;38.92;14.28;;;;;;;2.50;94.04;101559.72;1645598;87;21198;-88
2020/12/15 09:00:44;;;;;;;37.33;14.18;;;;;;;2.54;93.16;101563.66;1645541;87;21181;-88
2020/12/15 09:03:14;;;;;;;37.67;13.62;;;;;;;2.48;93.27;101557.73;1645504;87;21212;-88
2020/12/15 09:05:53;;;;;;;42.10;14.18;;;;;;;2.46;92.56;101557.91;1618185;87;21217;-89
2020/12/15 09:08:24;;;;;;;37.00;13.83;;;;;;;2.50;93.45;101554.40;1625556;88;21262;-88
2020/12/15 09:10:52;;;;;;;46.28;15.58;;;;;;;2.32;93.35;101556.05;1595372;89;21216;-88
2020/12/15 09:13:18;;;;;;;46.50;16.02;;;;;;;2.23;94.41;101555.30;1643337;87;21128;-89
2020/12/15 09:15:50;;;;;;;40.00;14.93;;;;;;;2.37;94.06;101548.36;1649009;87;21633;-89
2020/12/15 09:18:19;;;;;;;36.45;12.80;;;;;;;2.66;94.43;101547.55;1648927;87;21203;-90
2020/12/15 09:20:45;;;;;;;34.98;13.60;;;;;;;2.43;93.54;101540.16;1645606;87;21117;-90
2020/12/15 09:30:32;;;;;;;34.33;13.15;;;;;;;2.82;92.39;101545.70;1652982;84;21691;-91
2020/12/15 09:36:38;;;;;;;32.13;12.43;;;;;;;3.32;91.29;101536.88;1655877;86;21199;-91
2020/12/15 09:39:04;;;;;;;39.50;13.48;;;;;;;3.25;90.83;101535.98;1646717;86;21188;-91
2020/12/15 09:41:35;;;;;;;44.75;15.08;;;;;;;2.87;90.37;101541.47;1634036;87;21166;-88
2020/12/15 09:44:02;;;;;;;34.30;12.78;;;;;;;3.22;91.14;101546.20;1631515;87;21748;-88
2020/12/15 09:46:28;;;;;;;40.98;13.98;;;;;;;3.16;90.58;101547.26;1647813;85;21665;-89
2020/12/15 09:48:54;;;;;;;38.60;14.30;;;;;;;2.95;90.30;101544.55;1664019;85;21123;-89
2020/12/15 09:51:20;;;;;;;40.55;14.43;;;;;;;2.86;90.51;101551.81;1664038;85;21177;-89
2020/12/15 09:53:46;;;;;;;40.03;14.50;;;;;;;2.94;91.24;101546.88;1663875;85;21115;-88
2020/12/15 09:56:16;;;;;;;41.48;14.85;;;;;;;3.06;91.27;101540.09;1663870;85;21099;-89
2020/12/15 09:58:42;;;;;;;43.02;16.02;;;;;;;2.93;90.46;101537.25;1664014;84;21226;-88
2020/12/15 10:01:08;;;;;;;41.33;15.23;;;;;;;2.91;90.96;101533.45;1664115;85;21067;-88
2020/12/15 10:03:34;;;;;;;37.48;12.18;;;;;;;3.00;90.49;101509.36;1711510;83;21261;-87
2020/12/15 10:05:59;;;;;;;44.90;14.93;;;;;;;3.15;89.95;101522.98;1691437;83;21644;-86
2020/12/15 10:08:25;;;;;;;38.70;14.65;;;;;;;2.77;90.30;101535.63;1786351;79;21137;-89
2020/12/15 10:10:51;;;;;;;37.45;13.38;;;;;;;3.12;90.81;101531.34;1806564;79;21174;-86
2020/12/15 10:13:18;;;;;;;35.33;13.05;;;;;;;3.25;89.88;101527.18;1786323;79;21574;-86
2020/12/15 10:15:44;;;;;;;47.75;15.55;;;;;;;3.17;89.12;101520.94;1806626;79;21547;-88
2020/12/15 10:18:12;;;;;;;45.75;15.00;;;;;;;3.06;88.73;101531.25;1806568;79;21154;-87
2020/12/15 10:20:38;;;;;;;44.27;14.55;;;;;;;2.93;89.61;101531.92;1806557;79;21518;-88
2020/12/15 10:23:04;;;;;;;42.40;14.03;;;;;;;2.87;90.82;101534.00;1806535;79;20916;-88
2020/12/15 10:25:29;;;;;;;43.80;14.60;;;;;;;3.32;89.88;101524.88;1806603;79;21009;-88
2020/12/15 10:27:55;;;;;;;48.83;16.65;;;;;;;3.08;88.55;101530.56;1806664;79;22392;-88
2020/12/15 10:30:21;;;;;;;44.73;16.12;;;;;;;2.76;89.32;101524.64;1802032;79;21154;-88
2020/12/15 10:32:47;;;;;;;44.00;15.00;;;;;;;2.83;89.96;101524.75;1775765;79;21149;-88
2020/12/15 10:35:14;;;;;;;44.80;16.15;;;;;;;2.99;89.61;101529.02;1798285;79;21003;-88
2020/12/15 10:37:40;;;;;;;45.85;15.08;;;;;;;2.56;90.69;101521.73;1798037;79;21131;-89
2020/12/15 10:40:06;;;;;;;44.77;14.53;;;;;;;2.54;91.07;101527.73;1797949;79;21854;-89
2020/12/15 10:42:32;;;;;;;47.60;15.60;;;;;;;2.58;90.10;101530.34;1797928;79;21127;-88
2020/12/15 10:44:58;;;;;;;43.95;14.07;;;;;;;2.51;90.12;101526.77;1798120;79;20956;-89
2020/12/15 10:47:24;;;;;;;41.70;14.45;;;;;;;2.47;91.30;101534.78;1798088;79;21015;-89
2020/12/15 10:49:50;;;;;;;41.37;13.70;;;;;;;2.32;90.58;101528.13;1798200;79;20955;-88
2020/12/15 10:52:15;;;;;;;41.65;14.35;;;;;;;2.20;92.40;101519.77;1798045;79;21638;-89
2020/12/15 10:58:22;;;;;;;45.50;13.93;;;;;;;2.49;91.99;101518.14;1797973;79;21127;-88
2020/12/15 11:00:48;;;;;;;45.75;16.27;;;;;;;2.46;91.27;101526.49;1797935;79;20964;-88
2020/12/15 11:03:14;;;;;;;42.20;15.28;;;;;;;2.55;91.11;101518.73;1798096;79;21595;-88
2020/12/15 11:05:40;;;;;;;40.50;15.05;;;;;;;2.38;90.92;101521.25;1797934;79;21184;-89
2020/12/15 11:08:05;;;;;;;40.10;14.13;;;;;;;2.57;91.68;101523.89;1798025;79;20957;-91
2020/12/15 11:10:32;;;;;;;44.18;15.65;;;;;;;2.70;89.69;101528.05;1798230;79;21600;-90
2020/12/15 11:13:00;;;;;;;37.00;12.55;;;;;;;2.83;89.69;101526.08;1797982;79;21662;-91
2020/12/15 11:15:26;;;;;;;35.70;13.38;;;;;;;2.90;88.79;101519.80;1797851;79;21197;-91
2020/12/15 11:17:51;;;;;;;31.85;12.15;;;;;;;2.72;89.60;101532.69;1797929;79;21190;-90
2020/12/15 11:20:17;;;;;;;38.20;13.72;;;;;;;2.55;89.86;101529.38;1797769;79;20979;-90
2020/12/15 11:22:43;;;;;;;40.28;13.58;;;;;;;2.28;90.67;101536.16;1797976;79;20952;-89
2020/12/15 11:25:09;;;;;;;35.65;13.20;;;;;;;2.64;90.19;101533.59;1798094;79;21626;-89
2020/12/15 11:27:35;;;;;;;37.65;13.70;;;;;;;2.68;90.08;101524.77;1798097;79;21026;-92
2020/12/15 11:30:01;;;;;;;41.28;14.55;;;;;;;2.71;89.64;101523.88;1791354;79;21160;-90
2020/12/15 11:32:27;;;;;;;44.48;15.70;;;;;;;2.70;89.10;101524.87;1773961;80;20941;-89
2020/12/15 11:34:53;;;;;;;41.50;15.50;;;;;;;2.69;88.94;101525.07;1773892;79;21559;-89
2020/12/15 11:37:19;;;;;;;52.05;16.45;;;;;;;2.61;89.87;101522.50;1773936;80;21107;-89
2020/12/15 11:39:45;;;;;;;43.48;15.32;;;;;;;2.65;89.05;101521.96;1743951;80;20977;-89
2020/12/15 11:42:12;;;;;;;47.40;16.52;;;;;;;2.84;88.51;101514.41;1773924;80;21262;-89
2020/12/15 11:44:38;;;;;;;46.28;15.20;;;;;;;2.59;89.57;101517.38;1773779;80;21198;-89
2020/12/15 11:47:04;;;;;;;45.00;16.15;;;;;;;2.70;89.80;101516.89;1773878;80;20957;-89
2020/12/15 11:49:30;;;;;;;49.90;16.65;;;;;;;2.32;90.27;101521.98;1767845;80;20914;-89
2020/12/15 11:51:56;;;;;;;41.92;14.45;;;;;;;2.53;89.84;101518.12;1773930;80;21024;-89
2020/12/15 11:54:23;;;;;;;50.50;16.30;;;;;;;2.25;89.75;101514.73;1773884;80;21116;-89
2020/12/15 11:56:51;;;;;;;52.58;17.30;;;;;;;2.13;90.57;101510.06;1773696;80;21107;-89
2020/12/15 11:59:18;;;;;;;54.20;17.50;;;;;;;2.13;91.94;101519.36;1760948;80;21154;-90
2020/12/15 12:01:44;;;;;;;45.10;15.80;;;;;;;2.01;91.70;101517.14;1760708;81;21212;-87
2020/12/15 12:04:10;;;;;;;48.63;16.17;;;;;;;2.26;91.19;101525.72;1760778;81;21150;-88
2020/12/15 12:06:36;;;;;;;44.90;15.18;;;;;;;2.36;91.03;101518.80;1754504;81;21242;-87
2020/12/15 12:09:04;;;;;;;40.70;14.87;;;;;;;2.48;90.30;101528.47;1760644;81;21171;-89
2020/12/15 12:11:30;;;;;;;36.40;12.88;;;;;;;2.60;88.96;101526.18;1735154;81;21154;-90
2020/12/15 12:13:57;;;;;;;40.35;13.90;;;;;;;2.52;89.32;101537.73;1760837;81;21217;-89
2020/12/15 12:16:23;;;;;;;45.98;15.10;;;;;;;2.40;88.68;101539.20;1760759;81;21146;-88
2020/12/15 12:18:49;;;;;;;37.35;14.30;;;;;;;2.50;88.71;101546.42;1760694;81;21270;-89
2020/12/15 12:21:15;;;;;;;32.50;12.25;;;;;;;2.33;87.91;101548.41;1760690;81;21154;-87
2020/12/15 12:23:42;;;;;;;46.10;16.00;;;;;;;2.10;88.06;101553.78;1760730;81;22479;-87
2020/12/15 12:26:08;;;;;;;40.28;14.50;;;;;;;2.18;89.03;101560.36;1760540;81;21186;-87